sensor_id;sensor_type;location;lat;lon;timestamp;temperature;humidity
13598;DHT22;38563;54.258;12.574;2022-11-15T00:00:19;6.30;99.90
13598;DHT22;38563;54.258;12.574;2022-11-15T00:03:04;6.40;99.90
13598;DHT22;38563;54.258;12.574;2022-11-15T00:05:50;6.40;99.90
13598;DHT22;38563;54.258;12.574;2022-11-15T00:08:35;6.40;99.90
13598;DHT22;38563;54.258;12.574;2022-11-15T00:11:21;6.40;99.90
13598;DHT22;38563;54.258;12.574;2022-11-15T00:14:07;6.40;99.90
13598;DHT22;38563;54.258;12.574;2022-11-15T00:16:53;6.40;99.90
13598;DHT22;38563;54.258;12.574;2022-11-15T00:19:39;6.40;99.90
13598;DHT22;38563;54.258;12.574;2022-11-15T00:22:24;6.40;99.90
13598;DHT22;38563;54.258;12.574;2022-11-15T00:25:09;6.40;99.90
13598;DHT22;38563;54.258;12.574;2022-11-15T00:27:55;6.40;99.90
13598;DHT22;38563;54.258;12.574;2022-11-15T00:30:40;6.40;99.90
13598;DHT22;38563;54.258;12.574;2022-11-15T00:33:27;6.40;99.90
13598;DHT22;38563;54.258;12.574;2022-11-15T00:36:13;6.30;99.90
13598;DHT22;38563;54.258;12.574;2022-11-15T00:38:58;6.40;99.90
13598;DHT22;38563;54.258;12.574;2022-11-15T00:41:43;6.40;99.90
13598;DHT22;38563;54.258;12.574;2022-11-15T00:44:29;6.40;99.90
13598;DHT22;38563;54.258;12.574;2022-11-15T00:47:14;6.40;99.90
13598;DHT22;38563;54.258;12.574;2022-11-15T00:50:01;6.40;99.90
13598;DHT22;38563;54.258;12.574;2022-11-15T00:52:46;6.40;99.90
13598;DHT22;38563;54.258;12.574;2022-11-15T00:55:32;6.40;99.90
13598;DHT22;38563;54.258;12.574;2022-11-15T00:58:18;6.40;99.90
13598;DHT22;38563;54.258;12.574;2022-11-15T01:01:08;6.40;99.90
13598;DHT22;38563;54.258;12.574;2022-11-15T01:03:54;6.40;99.90
13598;DHT22;38563;54.258;12.574;2022-11-15T01:06:41;6.40;99.90
13598;DHT22;38563;54.258;12.574;2022-11-15T01:09:26;6.40;99.90
13598;DHT22;38563;54.258;12.574;2022-11-15T01:12:12;6.30;99.90
13598;DHT22;38563;54.258;12.574;2022-11-15T01:14:57;6.40;99.90
13598;DHT22;38563;54.258;12.574;2022-11-15T01:17:43;6.40;99.90
13598;DHT22;38563;54.258;12.574;2022-11-15T01:20:28;6.40;99.90
13598;DHT22;38563;54.258;12.574;2022-11-15T01:23:15;6.40;99.90
13598;DHT22;38563;54.258;12.574;2022-11-15T01:26:01;6.40;99.90
13598;DHT22;38563;54.258;12.574;2022-11-15T01:28:47;6.40;99.90
13598;DHT22;38563;54.258;12.574;2022-11-15T01:31:32;6.40;99.90
13598;DHT22;38563;54.258;12.574;2022-11-15T01:34:18;6.40;99.90
13598;DHT22;38563;54.258;12.574;2022-11-15T01:37:03;6.40;99.90
13598;DHT22;38563;54.258;12.574;2022-11-15T01:39:50;6.40;99.90
13598;DHT22;38563;54.258;12.574;2022-11-15T01:42:35;6.40;99.90
13598;DHT22;38563;54.258;12.574;2022-11-15T01:45:21;6.50;99.90
13598;DHT22;38563;54.258;12.574;2022-11-15T01:48:07;6.50;99.90
13598;DHT22;38563;54.258;12.574;2022-11-15T01:50:53;6.40;99.90
13598;DHT22;38563;54.258;12.574;2022-11-15T01:53:41;6.40;99.90
13598;DHT22;38563;54.258;12.574;2022-11-15T01:56:32;6.40;99.90
13598;DHT22;38563;54.258;12.574;2022-11-15T01:59:18;6.50;99.90
13598;DHT22;38563;54.258;12.574;2022-11-15T02:02:04;6.40;99.90
13598;DHT22;38563;54.258;12.574;2022-11-15T02:04:50;6.40;99.90
13598;DHT22;38563;54.258;12.574;2022-11-15T02:07:36;6.40;99.90
13598;DHT22;38563;54.258;12.574;2022-11-15T02:10:23;6.40;99.90
13598;DHT22;38563;54.258;12.574;2022-11-15T02:13:10;6.30;99.90
13598;DHT22;38563;54.258;12.574;2022-11-15T02:16:00;6.40;99.90
13598;DHT22;38563;54.258;12.574;2022-11-15T02:18:53;6.30;99.90
13598;DHT22;38563;54.258;12.574;2022-11-15T02:21:43;6.30;99.90
13598;DHT22;38563;54.258;12.574;2022-11-15T02:24:49;6.30;99.90
13598;DHT22;38563;54.258;12.574;2022-11-15T02:27:48;6.30;99.90
13598;DHT22;38563;54.258;12.574;2022-11-15T02:30:41;6.30;99.90
13598;DHT22;38563;54.258;12.574;2022-11-15T02:33:35;6.30;99.90
13598;DHT22;38563;54.258;12.574;2022-11-15T02:36:33;6.30;99.90
13598;DHT22;38563;54.258;12.574;2022-11-15T02:39:25;6.30;99.90
13598;DHT22;38563;54.258;12.574;2022-11-15T02:42:16;6.40;99.90
13598;DHT22;38563;54.258;12.574;2022-11-15T02:45:24;6.40;99.90
13598;DHT22;38563;54.258;12.574;2022-11-15T02:48:15;6.30;99.90
13598;DHT22;38563;54.258;12.574;2022-11-15T02:51:01;6.40;99.90
13598;DHT22;38563;54.258;12.574;2022-11-15T02:53:47;6.40;99.90
13598;DHT22;38563;54.258;12.574;2022-11-15T02:56:32;6.40;99.90
13598;DHT22;38563;54.258;12.574;2022-11-15T02:59:38;6.30;99.90
13598;DHT22;38563;54.258;12.574;2022-11-15T03:02:36;6.30;99.90
13598;DHT22;38563;54.258;12.574;2022-11-15T03:05:33;6.30;99.90
13598;DHT22;38563;54.258;12.574;2022-11-15T03:08:24;6.30;99.90
13598;DHT22;38563;54.258;12.574;2022-11-15T03:11:13;6.30;99.90
13598;DHT22;38563;54.258;12.574;2022-11-15T03:14:02;6.30;99.90
13598;DHT22;38563;54.258;12.574;2022-11-15T03:16:58;6.30;99.90
13598;DHT22;38563;54.258;12.574;2022-11-15T03:19:46;6.20;99.90
13598;DHT22;38563;54.258;12.574;2022-11-15T03:22:36;6.20;99.90
13598;DHT22;38563;54.258;12.574;2022-11-15T03:25:24;6.20;99.90
13598;DHT22;38563;54.258;12.574;2022-11-15T03:28:13;6.20;99.90
13598;DHT22;38563;54.258;12.574;2022-11-15T03:31:01;6.20;99.90
13598;DHT22;38563;54.258;12.574;2022-11-15T03:34:11;6.30;99.90
13598;DHT22;38563;54.258;12.574;2022-11-15T03:36:58;6.30;99.90
13598;DHT22;38563;54.258;12.574;2022-11-15T03:39:45;6.20;99.90
13598;DHT22;38563;54.258;12.574;2022-11-15T03:42:33;6.20;99.90
13598;DHT22;38563;54.258;12.574;2022-11-15T03:45:24;6.20;99.90
13598;DHT22;38563;54.258;12.574;2022-11-15T03:48:14;6.20;99.90
13598;DHT22;38563;54.258;12.574;2022-11-15T03:51:02;6.20;99.90
13598;DHT22;38563;54.258;12.574;2022-11-15T03:53:48;6.20;99.90
13598;DHT22;38563;54.258;12.574;2022-11-15T03:56:34;6.20;99.90
13598;DHT22;38563;54.258;12.574;2022-11-15T03:59:20;6.20;99.90
13598;DHT22;38563;54.258;12.574;2022-11-15T04:02:05;6.20;99.90
13598;DHT22;38563;54.258;12.574;2022-11-15T04:04:51;6.20;99.90
13598;DHT22;38563;54.258;12.574;2022-11-15T04:07:36;6.20;99.90
13598;DHT22;38563;54.258;12.574;2022-11-15T04:10:22;6.20;99.90
13598;DHT22;38563;54.258;12.574;2022-11-15T04:13:08;6.20;99.90
13598;DHT22;38563;54.258;12.574;2022-11-15T04:15:54;6.20;99.90
13598;DHT22;38563;54.258;12.574;2022-11-15T04:18:40;6.20;99.90
13598;DHT22;38563;54.258;12.574;2022-11-15T04:21:25;6.20;99.90
13598;DHT22;38563;54.258;12.574;2022-11-15T04:24:42;6.20;99.90
13598;DHT22;38563;54.258;12.574;2022-11-15T04:27:28;6.20;99.90
13598;DHT22;38563;54.258;12.574;2022-11-15T04:30:15;6.20;99.90
13598;DHT22;38563;54.258;12.574;2022-11-15T04:33:01;6.20;99.90
13598;DHT22;38563;54.258;12.574;2022-11-15T04:35:46;6.20;99.90
13598;DHT22;38563;54.258;12.574;2022-11-15T04:38:51;6.20;99.90
13598;DHT22;38563;54.258;12.574;2022-11-15T04:41:37;6.20;99.90
13598;DHT22;38563;54.258;12.574;2022-11-15T04:44:22;6.20;99.90
13598;DHT22;38563;54.258;12.574;2022-11-15T04:47:09;6.20;99.90
13598;DHT22;38563;54.258;12.574;2022-11-15T04:49:54;6.20;99.90
13598;DHT22;38563;54.258;12.574;2022-11-15T04:52:40;6.20;99.90
13598;DHT22;38563;54.258;12.574;2022-11-15T04:55:26;6.10;99.90
13598;DHT22;38563;54.258;12.574;2022-11-15T04:58:11;6.10;99.90
13598;DHT22;38563;54.258;12.574;2022-11-15T05:00:57;6.10;99.90
13598;DHT22;38563;54.258;12.574;2022-11-15T05:03:44;6.10;99.90
13598;DHT22;38563;54.258;12.574;2022-11-15T05:06:43;6.20;99.90
13598;DHT22;38563;54.258;12.574;2022-11-15T05:09:29;6.10;99.90
13598;DHT22;38563;54.258;12.574;2022-11-15T05:12:14;6.20;99.90
13598;DHT22;38563;54.258;12.574;2022-11-15T05:14:59;6.20;99.90
13598;DHT22;38563;54.258;12.574;2022-11-15T05:17:45;6.10;99.90
13598;DHT22;38563;54.258;12.574;2022-11-15T05:20:32;6.10;99.90
13598;DHT22;38563;54.258;12.574;2022-11-15T05:23:17;6.10;99.90
13598;DHT22;38563;54.258;12.574;2022-11-15T05:26:04;6.10;99.90
13598;DHT22;38563;54.258;12.574;2022-11-15T05:28:52;6.10;99.90
13598;DHT22;38563;54.258;12.574;2022-11-15T05:31:40;6.10;99.90
13598;DHT22;38563;54.258;12.574;2022-11-15T05:34:26;6.00;99.90
13598;DHT22;38563;54.258;12.574;2022-11-15T05:37:13;6.00;99.90
13598;DHT22;38563;54.258;12.574;2022-11-15T05:39:58;6.00;99.90
13598;DHT22;38563;54.258;12.574;2022-11-15T05:42:44;6.00;99.90
13598;DHT22;38563;54.258;12.574;2022-11-15T05:45:31;6.00;99.90
13598;DHT22;38563;54.258;12.574;2022-11-15T05:48:17;6.00;99.90
13598;DHT22;38563;54.258;12.574;2022-11-15T05:51:04;6.00;99.90
13598;DHT22;38563;54.258;12.574;2022-11-15T05:53:52;6.00;99.90
13598;DHT22;38563;54.258;12.574;2022-11-15T05:56:38;6.00;99.90
13598;DHT22;38563;54.258;12.574;2022-11-15T05:59:24;6.00;99.90
13598;DHT22;38563;54.258;12.574;2022-11-15T06:02:09;6.00;99.90
13598;DHT22;38563;54.258;12.574;2022-11-15T06:04:55;5.90;99.90
13598;DHT22;38563;54.258;12.574;2022-11-15T06:07:40;6.00;99.90
13598;DHT22;38563;54.258;12.574;2022-11-15T06:10:27;5.90;99.90
13598;DHT22;38563;54.258;12.574;2022-11-15T06:13:12;5.90;99.90
13598;DHT22;38563;54.258;12.574;2022-11-15T06:15:58;5.90;99.90
13598;DHT22;38563;54.258;12.574;2022-11-15T06:18:43;5.80;99.90
13598;DHT22;38563;54.258;12.574;2022-11-15T06:21:29;5.80;99.90
13598;DHT22;38563;54.258;12.574;2022-11-15T06:24:14;5.80;99.90
13598;DHT22;38563;54.258;12.574;2022-11-15T06:27:01;5.80;99.90
13598;DHT22;38563;54.258;12.574;2022-11-15T06:29:46;5.80;99.90
13598;DHT22;38563;54.258;12.574;2022-11-15T06:32:32;5.80;99.90
13598;DHT22;38563;54.258;12.574;2022-11-15T06:35:17;5.80;99.90
13598;DHT22;38563;54.258;12.574;2022-11-15T06:38:05;5.80;99.90
13598;DHT22;38563;54.258;12.574;2022-11-15T06:40:50;5.70;99.90
13598;DHT22;38563;54.258;12.574;2022-11-15T06:43:37;5.80;99.90
13598;DHT22;38563;54.258;12.574;2022-11-15T06:46:23;5.80;99.90
13598;DHT22;38563;54.258;12.574;2022-11-15T06:49:09;5.80;99.90
13598;DHT22;38563;54.258;12.574;2022-11-15T06:51:54;5.80;99.90
13598;DHT22;38563;54.258;12.574;2022-11-15T06:54:40;5.90;99.90
13598;DHT22;38563;54.258;12.574;2022-11-15T06:57:25;5.90;99.90
13598;DHT22;38563;54.258;12.574;2022-11-15T07:00:14;5.90;99.90
13598;DHT22;38563;54.258;12.574;2022-11-15T07:03:00;5.90;99.90
13598;DHT22;38563;54.258;12.574;2022-11-15T07:05:51;5.90;99.90
13598;DHT22;38563;54.258;12.574;2022-11-15T07:08:37;5.90;99.90
13598;DHT22;38563;54.258;12.574;2022-11-15T07:11:23;5.90;99.90
13598;DHT22;38563;54.258;12.574;2022-11-15T07:14:08;5.90;99.90
13598;DHT22;38563;54.258;12.574;2022-11-15T07:16:55;5.90;99.90
13598;DHT22;38563;54.258;12.574;2022-11-15T07:19:40;5.90;99.90
13598;DHT22;38563;54.258;12.574;2022-11-15T07:22:26;5.80;99.90
13598;DHT22;38563;54.258;12.574;2022-11-15T07:25:12;5.80;99.90
13598;DHT22;38563;54.258;12.574;2022-11-15T07:27:58;5.80;99.90
13598;DHT22;38563;54.258;12.574;2022-11-15T07:30:43;5.90;99.90
13598;DHT22;38563;54.258;12.574;2022-11-15T07:33:30;5.90;99.90
13598;DHT22;38563;54.258;12.574;2022-11-15T07:36:15;5.90;99.90
13598;DHT22;38563;54.258;12.574;2022-11-15T07:39:01;5.90;99.90
13598;DHT22;38563;54.258;12.574;2022-11-15T07:41:46;5.90;99.90
13598;DHT22;38563;54.258;12.574;2022-11-15T07:44:33;6.00;99.90
13598;DHT22;38563;54.258;12.574;2022-11-15T07:47:18;6.00;99.90
13598;DHT22;38563;54.258;12.574;2022-11-15T07:50:06;6.00;99.90
13598;DHT22;38563;54.258;12.574;2022-11-15T07:52:55;6.00;99.90
13598;DHT22;38563;54.258;12.574;2022-11-15T07:55:41;6.10;99.90
13598;DHT22;38563;54.258;12.574;2022-11-15T07:58:26;6.10;99.90
13598;DHT22;38563;54.258;12.574;2022-11-15T08:01:12;6.10;99.90
13598;DHT22;38563;54.258;12.574;2022-11-15T08:03:58;6.10;99.90
13598;DHT22;38563;54.258;12.574;2022-11-15T08:06:44;6.10;99.90
13598;DHT22;38563;54.258;12.574;2022-11-15T08:09:30;6.10;99.90
13598;DHT22;38563;54.258;12.574;2022-11-15T08:12:15;6.20;99.90
13598;DHT22;38563;54.258;12.574;2022-11-15T08:15:01;6.10;99.90
13598;DHT22;38563;54.258;12.574;2022-11-15T08:17:47;6.10;99.90
13598;DHT22;38563;54.258;12.574;2022-11-15T08:20:32;6.20;99.90
13598;DHT22;38563;54.258;12.574;2022-11-15T08:23:19;6.30;99.90
13598;DHT22;38563;54.258;12.574;2022-11-15T08:26:04;6.30;99.90
13598;DHT22;38563;54.258;12.574;2022-11-15T08:28:50;6.40;99.90
13598;DHT22;38563;54.258;12.574;2022-11-15T08:31:35;6.50;99.90
13598;DHT22;38563;54.258;12.574;2022-11-15T08:34:21;6.60;99.90
13598;DHT22;38563;54.258;12.574;2022-11-15T08:37:06;6.60;99.90
13598;DHT22;38563;54.258;12.574;2022-11-15T08:39:53;6.60;99.90
13598;DHT22;38563;54.258;12.574;2022-11-15T08:42:39;6.70;99.90
13598;DHT22;38563;54.258;12.574;2022-11-15T08:45:24;6.70;99.90
13598;DHT22;38563;54.258;12.574;2022-11-15T08:48:10;6.70;99.90
13598;DHT22;38563;54.258;12.574;2022-11-15T08:50:56;6.70;99.90
13598;DHT22;38563;54.258;12.574;2022-11-15T08:53:42;6.70;99.90
13598;DHT22;38563;54.258;12.574;2022-11-15T08:56:28;6.70;99.90
13598;DHT22;38563;54.258;12.574;2022-11-15T08:59:14;6.80;99.90
13598;DHT22;38563;54.258;12.574;2022-11-15T09:01:59;6.90;99.90
13598;DHT22;38563;54.258;12.574;2022-11-15T09:04:45;7.00;99.90
13598;DHT22;38563;54.258;12.574;2022-11-15T09:07:30;7.10;99.90
13598;DHT22;38563;54.258;12.574;2022-11-15T09:10:16;7.10;99.90
13598;DHT22;38563;54.258;12.574;2022-11-15T09:13:02;7.10;99.90
13598;DHT22;38563;54.258;12.574;2022-11-15T09:15:48;7.10;99.90
13598;DHT22;38563;54.258;12.574;2022-11-15T09:18:34;7.20;99.90
13598;DHT22;38563;54.258;12.574;2022-11-15T09:21:19;7.20;99.90
13598;DHT22;38563;54.258;12.574;2022-11-15T09:24:05;7.20;99.90
13598;DHT22;38563;54.258;12.574;2022-11-15T09:26:51;7.30;99.90
13598;DHT22;38563;54.258;12.574;2022-11-15T09:29:37;7.30;99.90
13598;DHT22;38563;54.258;12.574;2022-11-15T09:32:23;7.40;99.90
13598;DHT22;38563;54.258;12.574;2022-11-15T09:35:09;7.50;99.90
13598;DHT22;38563;54.258;12.574;2022-11-15T09:37:54;7.50;99.90
13598;DHT22;38563;54.258;12.574;2022-11-15T09:40:39;7.50;99.90
13598;DHT22;38563;54.258;12.574;2022-11-15T09:43:31;7.60;99.90
13598;DHT22;38563;54.258;12.574;2022-11-15T09:46:22;7.50;99.90
13598;DHT22;38563;54.258;12.574;2022-11-15T09:49:22;7.60;99.90
13598;DHT22;38563;54.258;12.574;2022-11-15T09:52:12;7.80;99.90
13598;DHT22;38563;54.258;12.574;2022-11-15T09:54:41;7.80;99.90
13598;DHT22;38563;54.258;12.574;2022-11-15T09:57:12;7.80;99.90
13598;DHT22;38563;54.258;12.574;2022-11-15T10:00:00;7.90;99.90
13598;DHT22;38563;54.258;12.574;2022-11-15T10:02:50;8.00;99.90
13598;DHT22;38563;54.258;12.574;2022-11-15T10:05:22;8.20;99.90
13598;DHT22;38563;54.258;12.574;2022-11-15T10:07:57;8.30;99.90
13598;DHT22;38563;54.258;12.574;2022-11-15T10:10:31;8.30;99.90
13598;DHT22;38563;54.258;12.574;2022-11-15T10:12:59;8.30;99.90
13598;DHT22;38563;54.258;12.574;2022-11-15T10:15:26;8.40;99.90
13598;DHT22;38563;54.258;12.574;2022-11-15T10:18:12;8.50;99.90
13598;DHT22;38563;54.258;12.574;2022-11-15T10:20:47;8.50;99.90
13598;DHT22;38563;54.258;12.574;2022-11-15T10:23:16;8.60;99.90
13598;DHT22;38563;54.258;12.574;2022-11-15T10:25:43;8.60;99.90
13598;DHT22;38563;54.258;12.574;2022-11-15T10:28:14;8.60;99.90
13598;DHT22;38563;54.258;12.574;2022-11-15T10:30:43;8.70;99.90
13598;DHT22;38563;54.258;12.574;2022-11-15T10:33:29;8.70;99.90
13598;DHT22;38563;54.258;12.574;2022-11-15T10:36:17;8.70;99.90
13598;DHT22;38563;54.258;12.574;2022-11-15T10:38:53;8.70;99.90
13598;DHT22;38563;54.258;12.574;2022-11-15T10:41:22;8.80;99.90
13598;DHT22;38563;54.258;12.574;2022-11-15T10:44:12;8.80;99.90
13598;DHT22;38563;54.258;12.574;2022-11-15T10:46:44;8.80;99.90
13598;DHT22;38563;54.258;12.574;2022-11-15T10:49:18;8.80;99.90
13598;DHT22;38563;54.258;12.574;2022-11-15T10:51:47;8.80;99.90
13598;DHT22;38563;54.258;12.574;2022-11-15T10:54:25;8.90;99.90
13598;DHT22;38563;54.258;12.574;2022-11-15T10:56:58;8.90;99.90
13598;DHT22;38563;54.258;12.574;2022-11-15T10:59:28;9.00;99.90
13598;DHT22;38563;54.258;12.574;2022-11-15T11:01:55;9.00;99.90
13598;DHT22;38563;54.258;12.574;2022-11-15T11:04:23;9.00;99.90
13598;DHT22;38563;54.258;12.574;2022-11-15T11:06:52;9.00;99.90
13598;DHT22;38563;54.258;12.574;2022-11-15T11:09:27;9.00;99.90
13598;DHT22;38563;54.258;12.574;2022-11-15T11:11:55;9.00;99.90
13598;DHT22;38563;54.258;12.574;2022-11-15T11:14:24;9.00;99.90
13598;DHT22;38563;54.258;12.574;2022-11-15T11:16:54;9.10;99.90
13598;DHT22;38563;54.258;12.574;2022-11-15T11:19:46;9.10;99.90
13598;DHT22;38563;54.258;12.574;2022-11-15T11:22:20;8.90;99.90
13598;DHT22;38563;54.258;12.574;2022-11-15T11:24:56;8.80;99.90
13598;DHT22;38563;54.258;12.574;2022-11-15T11:27:36;8.70;99.90
13598;DHT22;38563;54.258;12.574;2022-11-15T11:30:09;8.60;99.90
13598;DHT22;38563;54.258;12.574;2022-11-15T11:32:53;8.70;99.90
13598;DHT22;38563;54.258;12.574;2022-11-15T11:35:27;8.70;99.90
13598;DHT22;38563;54.258;12.574;2022-11-15T11:38:06;8.70;99.90
13598;DHT22;38563;54.258;12.574;2022-11-15T11:40:44;8.80;99.90
13598;DHT22;38563;54.258;12.574;2022-11-15T11:43:16;8.80;99.90
13598;DHT22;38563;54.258;12.574;2022-11-15T11:46:14;8.90;99.90
13598;DHT22;38563;54.258;12.574;2022-11-15T11:48:48;8.80;99.90
13598;DHT22;38563;54.258;12.574;2022-11-15T11:51:28;8.80;99.90
13598;DHT22;38563;54.258;12.574;2022-11-15T11:54:05;8.90;99.90
13598;DHT22;38563;54.258;12.574;2022-11-15T11:56:35;8.90;99.90
13598;DHT22;38563;54.258;12.574;2022-11-15T11:59:07;8.80;99.90
13598;DHT22;38563;54.258;12.574;2022-11-15T12:01:41;8.80;99.90
13598;DHT22;38563;54.258;12.574;2022-11-15T12:04:13;8.90;99.90
13598;DHT22;38563;54.258;12.574;2022-11-15T12:06:47;8.90;99.90
13598;DHT22;38563;54.258;12.574;2022-11-15T12:09:20;8.90;99.90
13598;DHT22;38563;54.258;12.574;2022-11-15T12:11:52;8.90;99.90
13598;DHT22;38563;54.258;12.574;2022-11-15T12:14:27;8.90;99.90
13598;DHT22;38563;54.258;12.574;2022-11-15T12:16:55;8.90;99.90
13598;DHT22;38563;54.258;12.574;2022-11-15T12:19:23;8.90;99.90
13598;DHT22;38563;54.258;12.574;2022-11-15T12:21:55;8.90;99.90
13598;DHT22;38563;54.258;12.574;2022-11-15T12:24:26;8.90;99.90
13598;DHT22;38563;54.258;12.574;2022-11-15T12:26:59;8.90;99.90
13598;DHT22;38563;54.258;12.574;2022-11-15T12:29:32;8.90;99.90
13598;DHT22;38563;54.258;12.574;2022-11-15T12:32:01;8.90;99.90
13598;DHT22;38563;54.258;12.574;2022-11-15T12:34:36;8.80;99.90
13598;DHT22;38563;54.258;12.574;2022-11-15T12:37:33;8.80;99.90
13598;DHT22;38563;54.258;12.574;2022-11-15T12:40:19;8.70;99.90
13598;DHT22;38563;54.258;12.574;2022-11-15T12:45:46;8.80;99.90
13598;DHT22;38563;54.258;12.574;2022-11-15T12:48:46;8.70;99.90
13598;DHT22;38563;54.258;12.574;2022-11-15T12:51:13;8.70;99.90
13598;DHT22;38563;54.258;12.574;2022-11-15T12:53:41;8.60;99.90
13598;DHT22;38563;54.258;12.574;2022-11-15T12:56:24;8.60;99.90
13598;DHT22;38563;54.258;12.574;2022-11-15T12:58:53;8.70;99.90
13598;DHT22;38563;54.258;12.574;2022-11-15T13:01:52;8.70;99.90
13598;DHT22;38563;54.258;12.574;2022-11-15T13:04:26;8.70;99.90
13598;DHT22;38563;54.258;12.574;2022-11-15T13:06:54;8.60;99.90
13598;DHT22;38563;54.258;12.574;2022-11-15T13:09:52;8.70;99.90
13598;DHT22;38563;54.258;12.574;2022-11-15T13:15:54;8.50;99.90
13598;DHT22;38563;54.258;12.574;2022-11-15T13:18:34;8.50;99.90
13598;DHT22;38563;54.258;12.574;2022-11-15T13:21:03;8.40;99.90
13598;DHT22;38563;54.258;12.574;2022-11-15T13:23:53;8.40;99.90
13598;DHT22;38563;54.258;12.574;2022-11-15T13:26:22;8.40;99.90
13598;DHT22;38563;54.258;12.574;2022-11-15T13:28:51;8.40;99.90
13598;DHT22;38563;54.258;12.574;2022-11-15T13:31:26;8.40;99.90
13598;DHT22;38563;54.258;12.574;2022-11-15T13:33:57;8.40;99.90
13598;DHT22;38563;54.258;12.574;2022-11-15T13:36:27;8.40;99.90
13598;DHT22;38563;54.258;12.574;2022-11-15T13:38:59;8.40;99.90
13598;DHT22;38563;54.258;12.574;2022-11-15T13:41:29;8.40;99.90
13598;DHT22;38563;54.258;12.574;2022-11-15T13:43:57;8.30;99.90
13598;DHT22;38563;54.258;12.574;2022-11-15T13:46:25;8.30;99.90
13598;DHT22;38563;54.258;12.574;2022-11-15T13:48:55;8.30;99.90
13598;DHT22;38563;54.258;12.574;2022-11-15T13:51:28;8.30;99.90
13598;DHT22;38563;54.258;12.574;2022-11-15T13:53:58;8.30;99.90
13598;DHT22;38563;54.258;12.574;2022-11-15T13:56:27;8.20;99.90
13598;DHT22;38563;54.258;12.574;2022-11-15T13:58:55;8.10;99.90
13598;DHT22;38563;54.258;12.574;2022-11-15T14:01:23;8.10;99.90
13598;DHT22;38563;54.258;12.574;2022-11-15T14:03:56;8.10;99.90
13598;DHT22;38563;54.258;12.574;2022-11-15T14:06:24;8.10;99.90
13598;DHT22;38563;54.258;12.574;2022-11-15T14:09:14;8.10;99.90
13598;DHT22;38563;54.258;12.574;2022-11-15T14:11:51;8.10;99.90
13598;DHT22;38563;54.258;12.574;2022-11-15T14:14:20;8.10;99.90
13598;DHT22;38563;54.258;12.574;2022-11-15T14:16:49;8.10;99.90
13598;DHT22;38563;54.258;12.574;2022-11-15T14:19:37;8.10;99.90
13598;DHT22;38563;54.258;12.574;2022-11-15T14:22:12;8.00;99.90
13598;DHT22;38563;54.258;12.574;2022-11-15T14:24:40;8.00;99.90
13598;DHT22;38563;54.258;12.574;2022-11-15T14:27:23;8.00;99.90
13598;DHT22;38563;54.258;12.574;2022-11-15T14:29:50;8.00;99.90
13598;DHT22;38563;54.258;12.574;2022-11-15T14:32:19;8.00;99.90
13598;DHT22;38563;54.258;12.574;2022-11-15T14:34:46;8.00;99.90
13598;DHT22;38563;54.258;12.574;2022-11-15T14:37:20;8.00;99.90
13598;DHT22;38563;54.258;12.574;2022-11-15T14:39:47;7.90;99.90
13598;DHT22;38563;54.258;12.574;2022-11-15T14:42:14;8.00;99.90
13598;DHT22;38563;54.258;12.574;2022-11-15T14:44:42;8.00;99.90
13598;DHT22;38563;54.258;12.574;2022-11-15T14:47:09;8.00;99.90
13598;DHT22;38563;54.258;12.574;2022-11-15T14:49:35;8.00;99.90
13598;DHT22;38563;54.258;12.574;2022-11-15T14:52:07;8.00;99.90
13598;DHT22;38563;54.258;12.574;2022-11-15T14:54:40;8.10;99.90
13598;DHT22;38563;54.258;12.574;2022-11-15T14:57:06;8.10;99.90
13598;DHT22;38563;54.258;12.574;2022-11-15T14:59:33;8.10;99.90
13598;DHT22;38563;54.258;12.574;2022-11-15T15:02:01;8.20;99.90
13598;DHT22;38563;54.258;12.574;2022-11-15T15:04:28;8.20;99.90
13598;DHT22;38563;54.258;12.574;2022-11-15T15:06:55;8.20;99.90
13598;DHT22;38563;54.258;12.574;2022-11-15T15:09:21;8.20;99.90
13598;DHT22;38563;54.258;12.574;2022-11-15T15:11:48;8.20;99.90
13598;DHT22;38563;54.258;12.574;2022-11-15T15:14:15;8.20;99.90
13598;DHT22;38563;54.258;12.574;2022-11-15T15:16:41;8.20;99.90
13598;DHT22;38563;54.258;12.574;2022-11-15T15:19:09;8.20;99.90
13598;DHT22;38563;54.258;12.574;2022-11-15T15:21:37;8.20;99.90
13598;DHT22;38563;54.258;12.574;2022-11-15T15:24:04;8.20;99.90
13598;DHT22;38563;54.258;12.574;2022-11-15T15:26:31;8.20;99.90
13598;DHT22;38563;54.258;12.574;2022-11-15T15:29:00;8.20;99.90
13598;DHT22;38563;54.258;12.574;2022-11-15T15:31:26;8.20;99.90
13598;DHT22;38563;54.258;12.574;2022-11-15T15:33:53;8.20;99.90
13598;DHT22;38563;54.258;12.574;2022-11-15T15:36:21;8.20;99.90
13598;DHT22;38563;54.258;12.574;2022-11-15T15:38:48;8.20;99.90
13598;DHT22;38563;54.258;12.574;2022-11-15T15:41:16;8.20;99.90
13598;DHT22;38563;54.258;12.574;2022-11-15T15:43:42;8.20;99.90
13598;DHT22;38563;54.258;12.574;2022-11-15T15:46:10;8.30;99.90
13598;DHT22;38563;54.258;12.574;2022-11-15T15:48:37;8.20;99.90
13598;DHT22;38563;54.258;12.574;2022-11-15T15:51:05;8.20;99.90
13598;DHT22;38563;54.258;12.574;2022-11-15T15:53:33;8.20;99.90
13598;DHT22;38563;54.258;12.574;2022-11-15T15:56:00;8.20;99.90
13598;DHT22;38563;54.258;12.574;2022-11-15T15:58:27;8.20;99.90
13598;DHT22;38563;54.258;12.574;2022-11-15T16:00:53;8.20;99.90
13598;DHT22;38563;54.258;12.574;2022-11-15T16:03:20;8.20;99.90
13598;DHT22;38563;54.258;12.574;2022-11-15T16:05:49;8.20;99.90
13598;DHT22;38563;54.258;12.574;2022-11-15T16:08:18;8.20;99.90
13598;DHT22;38563;54.258;12.574;2022-11-15T16:10:47;8.20;99.90
13598;DHT22;38563;54.258;12.574;2022-11-15T16:13:14;8.20;99.90
13598;DHT22;38563;54.258;12.574;2022-11-15T16:15:41;8.20;99.90
13598;DHT22;38563;54.258;12.574;2022-11-15T16:18:14;8.30;99.90
13598;DHT22;38563;54.258;12.574;2022-11-15T16:20:43;8.20;99.90
13598;DHT22;38563;54.258;12.574;2022-11-15T16:23:12;8.20;99.90
13598;DHT22;38563;54.258;12.574;2022-11-15T16:25:41;8.20;99.90
13598;DHT22;38563;54.258;12.574;2022-11-15T16:28:21;8.30;99.90
13598;DHT22;38563;54.258;12.574;2022-11-15T16:30:49;8.30;99.90
13598;DHT22;38563;54.258;12.574;2022-11-15T16:33:16;8.20;99.90
13598;DHT22;38563;54.258;12.574;2022-11-15T16:35:45;8.30;99.90
13598;DHT22;38563;54.258;12.574;2022-11-15T16:38:14;8.30;99.90
13598;DHT22;38563;54.258;12.574;2022-11-15T16:40:41;8.30;99.90
13598;DHT22;38563;54.258;12.574;2022-11-15T16:43:08;8.30;99.90
13598;DHT22;38563;54.258;12.574;2022-11-15T16:45:36;8.30;99.90
13598;DHT22;38563;54.258;12.574;2022-11-15T16:48:03;8.30;99.90
13598;DHT22;38563;54.258;12.574;2022-11-15T16:50:32;8.30;99.90
13598;DHT22;38563;54.258;12.574;2022-11-15T16:53:05;8.30;99.90
13598;DHT22;38563;54.258;12.574;2022-11-15T16:55:31;8.30;99.90
13598;DHT22;38563;54.258;12.574;2022-11-15T16:57:58;8.40;99.90
13598;DHT22;38563;54.258;12.574;2022-11-15T17:00:26;8.40;99.90